Time;durP1;ratioP1;P1;durP2;ratioP2;P2;SDS_P1;SDS_P2;PMS_P1;PMS_P2;Temp;Humidity;BMP_temperature;BMP_pressure;BME280_temperature;BME280_humidity;BME280_pressure;Samples;Min_cycle;Max_cycle;Signal;HPM_P1;HPM_P2
2022/10/09 00:00:38;;;;;;;4.90;2.07;;;8.70;99.90;;;;;;5014823;28;20428;-69
2022/10/09 00:03:04;;;;;;;2.67;1.90;;;8.70;99.90;;;;;;5007105;28;21034;-70
2022/10/09 00:05:30;;;;;;;3.00;2.70;;;8.60;99.90;;;;;;5030129;28;20226;-70
2022/10/09 00:07:55;;;;;;;7.93;2.00;;;8.60;99.90;;;;;;5030049;28;20202;-70
2022/10/09 00:10:21;;;;;;;5.80;2.60;;;8.60;99.90;;;;;;5030033;28;20245;-69
2022/10/09 00:12:46;;;;;;;4.63;1.90;;;8.50;99.90;;;;;;5030322;28;20186;-71
2022/10/09 00:15:12;;;;;;;3.50;1.80;;;8.50;99.90;;;;;;5012735;28;20182;-72
2022/10/09 00:17:39;;;;;;;5.03;1.97;;;8.50;99.90;;;;;;5028228;28;20180;-71
2022/10/09 00:20:05;;;;;;;3.97;1.83;;;8.40;99.90;;;;;;5030306;28;20528;-71
2022/10/09 00:22:31;;;;;;;4.67;1.63;;;8.50;99.90;;;;;;5014467;28;20657;-69
2022/10/09 00:24:57;;;;;;;2.10;1.70;;;8.50;99.90;;;;;;4989291;28;20421;-69
2022/10/09 00:27:23;;;;;;;3.93;2.10;;;8.40;99.90;;;;;;4990667;28;20965;-70
2022/10/09 00:29:49;;;;;;;4.70;1.50;;;8.40;99.90;;;;;;5003239;28;20227;-71
2022/10/09 00:32:14;;;;;;;6.87;2.20;;;8.40;99.90;;;;;;5030064;28;20832;-69
2022/10/09 00:34:40;;;;;;;4.20;2.80;;;8.50;99.90;;;;;;5029971;28;20414;-71
2022/10/09 00:37:06;;;;;;;3.27;2.10;;;8.50;99.90;;;;;;5025596;28;20545;-71
2022/10/09 00:39:31;;;;;;;4.67;2.40;;;8.40;99.90;;;;;;5007217;28;20591;-71
2022/10/09 00:42:00;;;;;;;8.57;2.60;;;8.30;99.90;;;;;;5034025;28;20211;-72
2022/10/09 00:44:47;;;;;;;5.53;2.20;;;8.30;99.90;;;;;;5034037;28;20175;-71
2022/10/09 00:47:26;;;;;;;7.27;2.03;;;8.20;99.90;;;;;;5033944;28;20430;-71
2022/10/09 00:49:57;;;;;;;5.03;2.10;;;8.20;99.90;;;;;;5033768;28;20407;-72
2022/10/09 00:52:24;;;;;;;2.60;2.20;;;8.10;99.90;;;;;;5034096;28;20474;-72
2022/10/09 00:54:57;;;;;;;2.90;1.97;;;8.10;99.90;;;;;;5034216;28;20483;-72
2022/10/09 00:57:24;;;;;;;3.70;2.20;;;8.10;99.90;;;;;;5018374;28;20758;-72
2022/10/09 00:59:50;;;;;;;3.83;2.43;;;8.00;99.90;;;;;;5024898;28;20422;-69
2022/10/09 01:02:16;;;;;;;5.97;2.37;;;8.00;99.90;;;;;;5033404;28;20859;-69
2022/10/09 01:04:41;;;;;;;3.30;2.37;;;8.00;99.90;;;;;;5033303;28;20184;-69
2022/10/09 01:07:26;;;;;;;7.80;3.07;;;8.00;99.90;;;;;;5027904;28;20244;-70
2022/10/09 01:10:28;;;;;;;4.97;2.10;;;8.00;99.90;;;;;;5007185;28;20173;-70
2022/10/09 01:13:20;;;;;;;4.10;1.87;;;8.00;99.90;;;;;;5029867;28;20453;-70
2022/10/09 01:15:59;;;;;;;3.67;3.33;;;8.10;99.90;;;;;;5023676;28;20713;-69
2022/10/09 01:18:49;;;;;;;4.67;3.00;;;8.00;99.90;;;;;;5007640;28;20450;-70
2022/10/09 01:21:27;;;;;;;7.10;2.53;;;8.00;99.90;;;;;;5006549;28;20397;-70
2022/10/09 01:24:07;;;;;;;4.20;2.40;;;8.10;99.90;;;;;;5013595;28;20419;-70
2022/10/09 01:27:02;;;;;;;2.60;2.40;;;7.90;99.90;;;;;;5009138;28;20749;-71
2022/10/09 01:29:34;;;;;;;3.70;2.70;;;7.90;99.90;;;;;;5008300;28;20895;-70
2022/10/09 01:32:01;;;;;;;3.70;2.47;;;7.80;99.90;;;;;;5005321;28;20404;-70
2022/10/09 01:34:27;;;;;;;5.13;2.50;;;7.90;99.90;;;;;;5008547;28;20403;-69
2022/10/09 01:36:55;;;;;;;6.50;2.40;;;7.80;99.90;;;;;;5013149;28;21050;-71
2022/10/09 01:39:22;;;;;;;3.90;2.40;;;7.90;99.90;;;;;;5020191;28;20445;-69
2022/10/09 01:41:50;;;;;;;7.37;2.20;;;7.90;99.90;;;;;;5019420;28;20810;-70
2022/10/09 01:44:18;;;;;;;7.33;2.83;;;7.90;99.90;;;;;;4999939;28;20455;-71
2022/10/09 01:46:45;;;;;;;15.90;2.33;;;7.90;99.90;;;;;;5023881;28;20419;-70
2022/10/09 01:49:31;;;;;;;4.03;2.03;;;7.90;99.90;;;;;;4997159;28;20963;-70
2022/10/09 01:52:16;;;;;;;5.37;3.00;;;7.90;99.90;;;;;;5017455;28;20399;-71
2022/10/09 01:54:56;;;;;;;2.73;2.43;;;7.90;99.90;;;;;;5003310;28;20425;-70
2022/10/09 01:57:43;;;;;;;3.40;2.10;;;7.80;99.90;;;;;;5016411;28;20410;-70
2022/10/09 02:00:11;;;;;;;5.23;2.20;;;7.70;99.90;;;;;;5014514;28;20487;-71
2022/10/09 02:02:37;;;;;;;6.13;2.37;;;7.80;99.90;;;;;;5004386;28;20463;-70
2022/10/09 02:05:04;;;;;;;4.83;2.10;;;8.00;99.90;;;;;;5002600;28;20407;-70
2022/10/09 02:07:31;;;;;;;4.50;2.30;;;7.90;99.90;;;;;;5031011;28;20919;-71
2022/10/09 02:10:00;;;;;;;6.50;2.87;;;7.80;99.90;;;;;;5023190;28;20520;-70
2022/10/09 02:12:28;;;;;;;6.03;2.60;;;7.80;99.90;;;;;;5008542;28;20480;-70
2022/10/09 02:14:54;;;;;;;5.87;2.47;;;7.80;99.90;;;;;;5004824;28;20431;-72
2022/10/09 02:17:25;;;;;;;1.70;1.60;;;7.80;99.90;;;;;;5005800;28;20757;-71
2022/10/09 02:20:00;;;;;;;3.73;2.47;;;7.80;99.90;;;;;;5001604;28;20249;-70
2022/10/09 02:22:29;;;;;;;2.70;2.23;;;7.70;99.90;;;;;;5001373;28;20466;-75
2022/10/09 02:24:57;;;;;;;2.90;1.80;;;7.70;99.90;;;;;;5003960;28;20506;-72
2022/10/09 02:27:23;;;;;;;3.97;2.00;;;7.70;99.90;;;;;;5012499;28;20411;-70
2022/10/09 02:29:49;;;;;;;4.53;2.37;;;7.60;99.90;;;;;;5010353;28;20407;-71
2022/10/09 02:32:15;;;;;;;2.90;2.60;;;7.60;99.90;;;;;;5006119;28;20474;-69
2022/10/09 02:34:41;;;;;;;5.43;2.30;;;7.60;99.90;;;;;;5007630;28;20452;-70
2022/10/09 02:37:07;;;;;;;6.43;2.17;;;7.60;99.90;;;;;;5004079;28;20454;-71
2022/10/09 02:39:32;;;;;;;2.10;1.97;;;7.70;99.90;;;;;;5018636;28;20565;-71
2022/10/09 02:41:58;;;;;;;2.60;1.97;;;7.70;99.90;;;;;;5011469;28;20611;-69
2022/10/09 02:44:24;;;;;;;4.37;2.10;;;7.60;99.90;;;;;;5007153;28;20455;-71
2022/10/09 02:46:49;;;;;;;3.40;1.77;;;7.70;99.90;;;;;;5033678;22;20195;-72
2022/10/09 02:49:15;;;;;;;3.27;2.60;;;7.70;99.90;;;;;;5029879;28;20198;-72
2022/10/09 02:51:40;;;;;;;5.83;3.20;;;7.60;99.90;;;;;;5028601;28;20211;-71
2022/10/09 02:54:06;;;;;;;3.17;2.10;;;7.60;99.90;;;;;;5027828;28;20180;-73
2022/10/09 02:56:32;;;;;;;5.00;2.50;;;7.70;99.90;;;;;;5031397;28;20182;-72
2022/10/09 02:58:57;;;;;;;4.93;3.40;;;7.70;99.90;;;;;;5030127;28;20172;-70
2022/10/09 03:01:23;;;;;;;3.90;1.93;;;7.60;99.90;;;;;;5031998;28;20180;-71
2022/10/09 03:03:49;;;;;;;7.40;2.60;;;7.60;99.90;;;;;;5031931;28;20205;-70
2022/10/09 03:06:17;;;;;;;2.70;2.33;;;7.60;99.90;;;;;;5031139;28;20168;-70
2022/10/09 03:08:46;;;;;;;2.70;2.50;;;7.60;99.90;;;;;;5032482;28;20673;-71
2022/10/09 03:11:13;;;;;;;4.03;2.27;;;7.60;99.90;;;;;;5033838;28;20411;-72
2022/10/09 03:13:39;;;;;;;4.30;2.37;;;7.60;99.90;;;;;;5034348;28;20901;-70
2022/10/09 03:16:12;;;;;;;3.70;3.40;;;7.50;99.90;;;;;;5038725;28;20525;-70
2022/10/09 03:18:38;;;;;;;2.27;1.97;;;7.50;99.90;;;;;;5047546;28;20427;-70
2022/10/09 03:21:08;;;;;;;6.90;3.17;;;7.50;99.90;;;;;;5048298;28;20462;-70
2022/10/09 03:23:34;;;;;;;2.80;2.10;;;7.50;99.90;;;;;;5048230;28;20892;-70
2022/10/09 03:26:07;;;;;;;5.63;2.53;;;7.60;99.90;;;;;;5047911;28;20467;-70
2022/10/09 03:28:35;;;;;;;4.23;2.37;;;7.50;99.90;;;;;;5036077;28;20841;-71
2022/10/09 03:31:01;;;;;;;6.57;2.60;;;7.50;99.90;;;;;;5035539;28;20836;-71
2022/10/09 03:33:26;;;;;;;4.67;2.50;;;7.40;99.90;;;;;;5035544;28;20633;-71
2022/10/09 03:35:52;;;;;;;8.70;3.10;;;7.30;99.90;;;;;;5035289;28;20423;-70
2022/10/09 03:38:17;;;;;;;3.83;2.47;;;7.40;99.90;;;;;;5037394;28;20195;-70
2022/10/09 03:40:43;;;;;;;2.93;2.27;;;7.40;99.90;;;;;;5036319;28;20247;-71
2022/10/09 03:43:09;;;;;;;5.63;2.70;;;7.30;99.90;;;;;;5035286;28;20196;-71
2022/10/09 03:45:37;;;;;;;5.73;3.37;;;7.30;99.90;;;;;;5034865;28;20171;-71
2022/10/09 03:48:03;;;;;;;3.63;2.80;;;7.30;99.90;;;;;;5035068;28;20262;-72
2022/10/09 03:50:29;;;;;;;3.07;2.77;;;7.30;99.90;;;;;;5038177;28;20496;-71
2022/10/09 03:52:54;;;;;;;7.13;3.20;;;7.20;99.90;;;;;;5034925;28;20233;-71
2022/10/09 03:55:20;;;;;;;16.80;2.93;;;7.20;99.90;;;;;;5034878;28;20175;-72
2022/10/09 03:57:45;;;;;;;5.87;2.40;;;7.20;99.90;;;;;;5034475;28;20192;-71
2022/10/09 04:00:11;;;;;;;2.17;1.93;;;7.30;99.90;;;;;;5032423;28;20183;-72
2022/10/09 04:02:37;;;;;;;2.33;2.13;;;7.30;99.90;;;;;;5033390;28;20199;-72
2022/10/09 04:05:02;;;;;;;2.40;2.07;;;7.20;99.90;;;;;;5046054;28;20426;-73
2022/10/09 04:07:28;;;;;;;8.63;2.30;;;7.20;99.90;;;;;;5040188;28;20680;-72
2022/10/09 04:09:55;;;;;;;11.13;3.00;;;7.30;99.90;;;;;;5039649;28;20203;-72
2022/10/09 04:12:20;;;;;;;7.33;2.70;;;7.20;99.90;;;;;;5045718;28;20175;-72
2022/10/09 04:14:46;;;;;;;4.40;3.03;;;7.20;99.90;;;;;;5041294;28;20418;-72
2022/10/09 04:17:11;;;;;;;4.10;2.80;;;7.10;99.90;;;;;;5041558;28;20833;-72
2022/10/09 04:19:37;;;;;;;4.90;2.43;;;7.10;99.90;;;;;;5028424;28;20183;-72
2022/10/09 04:22:02;;;;;;;3.60;2.07;;;7.10;99.90;;;;;;5029361;28;20203;-72
2022/10/09 04:24:28;;;;;;;7.57;2.83;;;7.10;99.90;;;;;;5040382;28;20229;-73
2022/10/09 04:26:53;;;;;;;8.03;2.67;;;7.10;99.90;;;;;;5034729;28;20586;-73
2022/10/09 04:29:19;;;;;;;3.20;2.33;;;7.10;99.90;;;;;;5044671;28;20175;-72
2022/10/09 04:31:44;;;;;;;6.63;2.50;;;7.00;99.90;;;;;;5040614;28;20608;-71
2022/10/09 04:34:10;;;;;;;3.17;2.87;;;7.00;99.90;;;;;;5045586;28;20214;-72
2022/10/09 04:36:35;;;;;;;6.37;2.80;;;7.10;99.90;;;;;;5034836;28;20176;-73
2022/10/09 04:39:02;;;;;;;2.60;2.40;;;7.00;99.90;;;;;;5047052;28;20168;-72
2022/10/09 04:41:28;;;;;;;4.23;2.30;;;7.00;99.90;;;;;;5039924;28;20171;-71
2022/10/09 04:43:55;;;;;;;5.57;3.23;;;7.00;99.90;;;;;;5040075;28;20527;-71
2022/10/09 04:46:20;;;;;;;3.90;2.50;;;7.00;99.90;;;;;;5046744;28;20178;-71
2022/10/09 04:48:46;;;;;;;3.53;2.93;;;6.90;99.90;;;;;;5034467;28;20473;-71
2022/10/09 04:51:13;;;;;;;3.00;2.70;;;6.90;99.90;;;;;;5045024;28;20477;-71
2022/10/09 04:53:39;;;;;;;5.90;2.00;;;7.00;99.90;;;;;;5041195;28;20409;-71
2022/10/09 04:56:08;;;;;;;3.20;2.50;;;7.10;99.90;;;;;;5036146;28;20460;-73
2022/10/09 04:58:39;;;;;;;6.23;2.63;;;7.10;99.90;;;;;;5032123;28;20907;-72
2022/10/09 05:01:14;;;;;;;3.30;3.00;;;7.10;99.90;;;;;;5046219;28;20987;-71
2022/10/09 05:03:40;;;;;;;8.27;3.00;;;7.00;99.90;;;;;;5041189;28;20958;-71
2022/10/09 05:06:08;;;;;;;3.57;2.57;;;6.90;99.90;;;;;;5037612;28;20414;-71
2022/10/09 05:08:34;;;;;;;9.07;2.60;;;6.90;99.90;;;;;;5047850;28;20619;-72
2022/10/09 05:11:06;;;;;;;8.13;2.60;;;6.90;99.90;;;;;;5035933;28;20401;-72
2022/10/09 05:13:36;;;;;;;3.23;2.00;;;6.80;99.90;;;;;;5049239;28;20508;-73
2022/10/09 05:16:03;;;;;;;4.27;2.73;;;6.80;99.90;;;;;;5043018;28;20499;-71
2022/10/09 05:18:30;;;;;;;5.50;2.60;;;6.90;99.90;;;;;;5051304;28;20434;-71
2022/10/09 05:20:55;;;;;;;5.50;2.20;;;6.90;99.90;;;;;;5035640;28;20417;-72
2022/10/09 05:23:21;;;;;;;8.73;3.07;;;6.80;99.90;;;;;;5045244;28;20828;-71
2022/10/09 05:25:57;;;;;;;8.17;2.97;;;6.80;99.90;;;;;;5045776;28;20190;-71
2022/10/09 05:28:23;;;;;;;3.63;2.50;;;6.80;99.90;;;;;;5038928;28;20183;-73
2022/10/09 05:30:49;;;;;;;6.33;2.47;;;6.80;99.90;;;;;;5051553;28;20765;-72
2022/10/09 05:33:15;;;;;;;4.40;2.53;;;6.80;99.90;;;;;;5041756;28;20409;-72
2022/10/09 05:35:48;;;;;;;9.00;2.67;;;6.90;99.90;;;;;;5044698;28;20168;-72
2022/10/09 05:38:13;;;;;;;4.33;2.73;;;7.10;99.90;;;;;;5048998;28;20201;-70
2022/10/09 05:40:48;;;;;;;3.40;2.40;;;7.20;99.90;;;;;;5036137;28;20418;-70
2022/10/09 05:43:13;;;;;;;5.50;2.60;;;7.30;99.90;;;;;;5047865;28;20673;-74
2022/10/09 05:45:39;;;;;;;3.40;2.50;;;7.40;99.90;;;;;;5043801;28;20495;-72
2022/10/09 05:48:04;;;;;;;3.23;2.70;;;7.30;99.90;;;;;;5040747;28;20211;-71
2022/10/09 05:50:30;;;;;;;4.77;2.93;;;7.60;99.90;;;;;;5050537;28;20643;-72
2022/10/09 05:52:55;;;;;;;7.50;3.30;;;7.60;99.90;;;;;;5038151;28;20172;-72
2022/10/09 05:55:21;;;;;;;3.93;3.03;;;7.70;99.90;;;;;;5046788;28;20168;-72
2022/10/09 05:57:47;;;;;;;4.90;3.80;;;7.90;99.90;;;;;;5045081;28;20205;-72
2022/10/09 06:00:13;;;;;;;8.03;3.40;;;8.10;99.90;;;;;;5039678;28;20274;-71
2022/10/09 06:02:38;;;;;;;6.80;3.13;;;8.00;99.90;;;;;;5050418;28;20252;-71
2022/10/09 06:05:04;;;;;;;4.83;2.87;;;8.10;99.90;;;;;;5038631;28;20414;-71
2022/10/09 06:07:30;;;;;;;6.10;3.00;;;8.10;99.90;;;;;;5045082;28;20279;-72
2022/10/09 06:09:55;;;;;;;11.00;2.80;;;8.30;99.90;;;;;;5045905;28;20246;-72
2022/10/09 06:12:21;;;;;;;9.27;3.20;;;8.40;99.90;;;;;;5037197;28;20613;-71
2022/10/09 06:14:46;;;;;;;5.00;2.97;;;8.40;99.90;;;;;;5042893;28;20266;-72
2022/10/09 06:17:12;;;;;;;4.90;3.00;;;8.40;99.90;;;;;;5053067;28;20560;-71
2022/10/09 06:19:37;;;;;;;10.63;3.37;;;8.20;99.90;;;;;;5043909;28;20184;-71
2022/10/09 06:22:02;;;;;;;7.87;3.10;;;8.30;99.90;;;;;;5046578;28;20199;-71
2022/10/09 06:24:28;;;;;;;9.80;2.93;;;8.60;99.90;;;;;;5036861;28;20173;-70
2022/10/09 06:26:53;;;;;;;6.47;3.00;;;8.90;99.90;;;;;;5043589;28;20187;-70
2022/10/09 06:29:19;;;;;;;3.23;2.83;;;9.20;99.90;;;;;;5046281;28;20166;-71
2022/10/09 06:31:45;;;;;;;6.70;2.43;;;9.70;99.90;;;;;;5044074;28;20340;-71
2022/10/09 06:34:10;;;;;;;7.00;3.23;;;10.10;99.90;;;;;;5038750;28;20194;-72
2022/10/09 06:36:36;;;;;;;4.90;2.20;;;9.80;99.90;;;;;;5034276;28;20249;-72
2022/10/09 06:39:05;;;;;;;3.37;2.23;;;9.90;99.90;;;;;;5048569;28;20187;-72
2022/10/09 06:41:30;;;;;;;5.37;2.30;;;10.50;99.90;;;;;;5042045;28;20171;-72
2022/10/09 06:44:03;;;;;;;1.80;1.50;;;10.30;99.90;;;;;;5040691;28;20599;-71
2022/10/09 06:46:31;;;;;;;4.80;2.37;;;10.60;99.90;;;;;;5050857;28;20666;-70
2022/10/09 06:48:58;;;;;;;4.77;1.63;;;10.90;99.90;;;;;;5040799;28;20441;-72
2022/10/09 06:51:24;;;;;;;4.70;1.73;;;11.00;99.90;;;;;;5045016;28;20912;-71
2022/10/09 06:53:52;;;;;;;3.90;1.73;;;11.20;99.90;;;;;;5043941;28;20494;-71
2022/10/09 06:56:19;;;;;;;5.83;2.03;;;11.30;99.90;;;;;;5035971;28;20555;-71
2022/10/09 06:58:45;;;;;;;4.30;2.00;;;11.00;99.90;;;;;;5038999;28;20439;-71
2022/10/09 07:01:20;;;;;;;3.00;1.70;;;11.10;99.90;;;;;;5046387;28;20808;-71
2022/10/09 07:03:51;;;;;;;2.90;2.70;;;11.40;99.90;;;;;;5043536;28;20454;-72
2022/10/09 07:06:25;;;;;;;7.20;1.80;;;11.70;99.90;;;;;;5037566;28;20490;-72
2022/10/09 07:09:03;;;;;;;5.40;2.67;;;12.00;99.90;;;;;;5047991;28;20432;-71
2022/10/09 07:11:35;;;;;;;2.73;1.80;;;12.10;99.90;;;;;;5041031;28;20409;-72
2022/10/09 07:14:03;;;;;;;3.67;2.10;;;12.20;99.90;;;;;;5049125;28;20421;-72
2022/10/09 07:16:31;;;;;;;4.73;2.07;;;12.70;99.90;;;;;;5046644;28;20548;-71
2022/10/09 07:18:59;;;;;;;3.93;1.63;;;12.80;99.90;;;;;;5048082;28;20443;-72
2022/10/09 07:21:24;;;;;;;3.30;1.70;;;13.00;99.90;;;;;;5040015;28;20495;-72
2022/10/09 07:23:50;;;;;;;8.83;2.17;;;13.30;99.90;;;;;;5040751;28;20553;-72
2022/10/09 07:26:19;;;;;;;3.43;1.60;;;13.20;99.90;;;;;;5047292;28;20176;-72
2022/10/09 07:28:45;;;;;;;3.27;1.97;;;14.30;99.90;;;;;;5035413;28;20622;-72
2022/10/09 07:31:12;;;;;;;4.70;1.97;;;14.30;99.90;;;;;;5046182;28;20409;-71
2022/10/09 07:33:37;;;;;;;4.47;2.13;;;13.90;99.90;;;;;;5041472;28;20412;-72
2022/10/09 07:36:04;;;;;;;2.20;1.53;;;13.80;99.90;;;;;;5038608;28;20437;-70
2022/10/09 07:38:30;;;;;;;3.37;1.73;;;13.90;99.90;;;;;;5048197;28;20200;-70
2022/10/09 07:41:01;;;;;;;2.77;1.30;;;14.50;99.90;;;;;;5033818;28;20435;-71
2022/10/09 07:43:27;;;;;;;4.03;1.93;;;14.70;99.90;;;;;;5038411;28;20200;-71
2022/10/09 07:45:56;;;;;;;2.03;1.67;;;14.60;99.90;;;;;;5039042;28;20401;-71
2022/10/09 07:48:22;;;;;;;3.40;1.77;;;15.20;99.90;;;;;;5047381;28;20235;-71
2022/10/09 07:50:47;;;;;;;4.27;2.20;;;15.60;99.90;;;;;;5034949;28;20876;-71
2022/10/09 07:53:13;;;;;;;6.50;2.17;;;14.90;99.90;;;;;;5045017;28;20240;-70
2022/10/09 07:55:44;;;;;;;4.97;1.97;;;14.70;99.90;;;;;;5041053;28;20177;-70
2022/10/09 07:58:09;;;;;;;3.50;1.63;;;14.70;99.90;;;;;;5037266;28;20198;-72
2022/10/09 08:00:35;;;;;;;3.33;1.83;;;14.60;99.90;;;;;;5048030;28;20400;-72
2022/10/09 08:03:00;;;;;;;6.10;2.03;;;14.70;99.90;;;;;;5032534;28;20196;-72
2022/10/09 08:05:26;;;;;;;5.23;1.80;;;15.00;99.90;;;;;;5032281;28;20233;-72
2022/10/09 08:07:51;;;;;;;3.57;1.90;;;15.00;99.90;;;;;;5032886;28;20208;-71
2022/10/09 08:10:17;;;;;;;4.40;2.93;;;15.40;99.90;;;;;;5029864;28;20311;-71
2022/10/09 08:12:42;;;;;;;5.30;1.93;;;15.70;99.90;;;;;;5034576;28;20221;-72
2022/10/09 08:15:08;;;;;;;3.43;1.90;;;15.70;99.90;;;;;;5036721;28;20863;-71
2022/10/09 08:17:34;;;;;;;5.53;1.67;;;16.20;99.90;;;;;;5031396;28;20192;-71
2022/10/09 08:19:59;;;;;;;7.00;2.00;;;16.20;99.90;;;;;;5035654;28;20176;-73
2022/10/09 08:22:25;;;;;;;2.57;1.87;;;16.10;99.90;;;;;;5035070;28;20209;-71
2022/10/09 08:24:50;;;;;;;2.30;1.80;;;17.50;99.90;;;;;;5033819;28;20251;-71
2022/10/09 08:27:16;;;;;;;6.47;2.37;;;17.80;99.90;;;;;;5033079;28;20552;-71
2022/10/09 08:29:41;;;;;;;6.77;2.50;;;18.20;99.90;;;;;;5033669;28;20166;-74
2022/10/09 08:32:07;;;;;;;3.60;2.17;;;17.90;99.90;;;;;;5034142;28;20179;-71
2022/10/09 08:34:32;;;;;;;5.47;2.07;;;17.30;99.90;;;;;;5032094;28;20182;-72
2022/10/09 08:36:58;;;;;;;3.80;1.83;;;16.70;99.90;;;;;;5030006;28;20193;-71
2022/10/09 08:39:23;;;;;;;3.80;2.50;;;16.40;99.90;;;;;;5032110;28;20175;-73
2022/10/09 08:41:53;;;;;;;8.07;3.93;;;16.40;99.90;;;;;;5031885;28;20653;-72
2022/10/09 08:44:35;;;;;;;6.23;2.53;;;16.00;99.90;;;;;;5032760;28;20274;-76
2022/10/09 08:47:24;;;;;;;3.70;2.20;;;16.10;99.90;;;;;;5027222;28;20441;-73
2022/10/09 08:50:09;;;;;;;4.77;2.03;;;16.90;99.90;;;;;;5050334;23;20559;-69
2022/10/09 08:52:51;;;;;;;3.83;2.13;;;17.20;99.90;;;;;;5028837;28;20929;-69
2022/10/09 08:55:22;;;;;;;8.33;2.33;;;18.20;99.90;;;;;;5022450;28;20434;-72
2022/10/09 08:57:51;;;;;;;7.43;2.10;;;17.70;99.90;;;;;;5043703;28;20481;-73
2022/10/09 09:00:19;;;;;;;5.20;2.40;;;17.70;99.90;;;;;;5033969;28;20440;-73
2022/10/09 09:02:57;;;;;;;3.23;1.93;;;17.40;99.90;;;;;;5018520;28;20466;-73
2022/10/09 09:05:57;;;;;;;4.53;2.40;;;18.10;99.90;;;;;;5033184;28;21018;-73
2022/10/09 09:08:46;;;;;;;3.23;2.00;;;18.60;99.90;;;;;;5019021;28;21032;-72
2022/10/09 09:11:21;;;;;;;5.00;1.90;;;19.00;99.90;;;;;;5005329;28;20893;-73
2022/10/09 09:13:56;;;;;;;2.63;1.50;;;18.70;99.90;;;;;;5023150;28;20411;-73
2022/10/09 09:16:33;;;;;;;4.67;2.00;;;18.30;99.90;;;;;;5025202;28;20412;-73
2022/10/09 09:19:08;;;;;;;4.97;1.87;;;17.20;99.90;;;;;;5001420;28;20824;-73
2022/10/09 09:21:42;;;;;;;9.37;2.50;;;18.30;99.90;;;;;;5024300;28;20414;-73
2022/10/09 09:24:39;;;;;;;4.47;2.53;;;18.70;99.90;;;;;;5016921;28;20415;-73
2022/10/09 09:27:18;;;;;;;7.77;2.53;;;18.40;99.90;;;;;;5027638;28;20402;-73
2022/10/09 09:30:11;;;;;;;4.33;1.67;;;19.10;99.90;;;;;;5023004;28;21002;-71
2022/10/09 09:32:55;;;;;;;5.13;2.20;;;18.10;99.90;;;;;;5030033;28;20421;-75
2022/10/09 09:35:55;;;;;;;4.40;2.07;;;16.80;99.90;;;;;;5021045;28;20847;-72
2022/10/09 09:38:20;;;;;;;2.97;1.70;;;16.30;99.90;;;;;;5019096;28;20441;-73
2022/10/09 09:40:46;;;;;;;4.23;1.60;;;16.00;99.90;;;;;;5017038;28;20422;-73
2022/10/09 09:43:19;;;;;;;6.53;2.53;;;15.60;99.90;;;;;;5019834;28;20217;-73
2022/10/09 09:45:46;;;;;;;4.50;1.60;;;15.50;99.90;;;;;;5022421;28;20206;-73
2022/10/09 09:48:24;;;;;;;4.17;1.67;;;15.60;99.90;;;;;;5028595;28;20951;-73
2022/10/09 09:50:52;;;;;;;7.10;2.30;;;15.80;99.90;;;;;;5017461;28;20419;-72
2022/10/09 09:53:38;;;;;;;8.30;1.80;;;16.20;99.90;;;;;;5026878;28;20417;-72
2022/10/09 09:56:05;;;;;;;7.73;2.33;;;16.20;99.90;;;;;;5007792;28;20409;-73
2022/10/09 09:58:37;;;;;;;2.33;2.13;;;15.40;99.90;;;;;;5028927;28;20752;-72
2022/10/09 10:01:05;;;;;;;6.73;2.40;;;15.50;99.90;;;;;;5018189;28;20438;-73
2022/10/09 10:03:34;;;;;;;3.40;1.67;;;15.60;99.90;;;;;;5024218;28;20508;-72
2022/10/09 10:06:00;;;;;;;7.23;1.80;;;15.30;99.90;;;;;;5025434;28;20412;-72
2022/10/09 10:08:28;;;;;;;8.43;2.87;;;15.30;99.90;;;;;;5016158;28;20407;-72
2022/10/09 10:10:56;;;;;;;4.37;2.10;;;15.40;99.90;;;;;;4999058;28;20424;-71
2022/10/09 10:13:27;;;;;;;2.50;1.80;;;15.20;99.90;;;;;;5028244;28;20441;-73
2022/10/09 10:15:55;;;;;;;2.17;1.67;;;15.20;99.90;;;;;;5024966;28;20531;-74
2022/10/09 10:18:23;;;;;;;4.57;3.60;;;15.10;99.90;;;;;;5017792;28;20424;-72
2022/10/09 10:20:53;;;;;;;3.80;1.70;;;15.00;99.90;;;;;;5029800;28;20416;-72
2022/10/09 10:23:31;;;;;;;3.40;1.80;;;15.00;99.90;;;;;;5021600;28;20456;-73
2022/10/09 10:26:19;;;;;;;3.37;1.20;;;14.90;99.90;;;;;;5023303;28;20523;-72
2022/10/09 10:28:53;;;;;;;3.00;1.43;;;14.90;99.90;;;;;;5036056;28;20961;-73
2022/10/09 10:31:46;;;;;;;7.83;1.80;;;14.80;99.90;;;;;;5019919;28;20477;-72
2022/10/09 10:34:24;;;;;;;2.97;1.73;;;15.10;99.90;;;;;;5032439;28;20414;-73
2022/10/09 10:37:12;;;;;;;6.17;1.50;;;15.40;99.90;;;;;;5020690;28;20399;-73
2022/10/09 10:40:13;;;;;;;5.60;2.70;;;15.70;99.90;;;;;;5023435;28;20501;-72
2022/10/09 10:42:57;;;;;;;3.33;1.97;;;15.60;99.90;;;;;;5032858;28;20475;-73
2022/10/09 10:45:43;;;;;;;6.17;1.57;;;15.90;99.90;;;;;;5024028;28;20409;-73
2022/10/09 10:48:14;;;;;;;1.90;1.20;;;15.70;99.90;;;;;;5019420;28;20437;-73
2022/10/09 10:51:13;;;;;;;7.17;1.50;;;15.40;99.90;;;;;;5031016;28;20472;-72
2022/10/09 10:54:11;;;;;;;3.33;1.50;;;15.30;99.90;;;;;;5026188;28;20424;-69
2022/10/09 10:56:41;;;;;;;7.13;1.53;;;15.20;99.90;;;;;;5008613;28;20501;-74
2022/10/09 10:59:10;;;;;;;3.23;1.20;;;15.10;99.90;;;;;;5028395;28;20427;-73
2022/10/09 11:01:52;;;;;;;5.40;1.60;;;15.00;99.90;;;;;;5022603;28;20420;-73
2022/10/09 11:04:28;;;;;;;2.60;1.27;;;15.20;99.90;;;;;;5018232;28;20502;-72
2022/10/09 11:07:08;;;;;;;8.00;1.87;;;15.40;99.90;;;;;;5001327;28;20407;-73
2022/10/09 11:09:55;;;;;;;5.13;1.60;;;15.60;99.90;;;;;;5027257;28;20416;-74
2022/10/09 11:12:36;;;;;;;1.90;1.30;;;15.70;99.90;;;;;;5026945;28;20396;-73
2022/10/09 11:15:22;;;;;;;2.40;1.03;;;15.70;99.90;;;;;;5019146;28;20411;-74
2022/10/09 11:18:02;;;;;;;1.93;1.10;;;15.90;99.90;;;;;;5031693;28;20448;-72
2022/10/09 11:20:49;;;;;;;2.63;2.00;;;15.90;99.90;;;;;;5014688;28;20423;-72
2022/10/09 11:23:35;;;;;;;2.70;1.40;;;16.20;99.90;;;;;;5026521;28;20460;-73
2022/10/09 11:26:23;;;;;;;2.93;1.00;;;16.20;99.90;;;;;;5024626;28;20413;-73
2022/10/09 11:28:54;;;;;;;6.20;1.43;;;16.40;99.90;;;;;;5016489;28;20434;-73
2022/10/09 11:31:39;;;;;;;1.73;0.97;;;16.40;99.90;;;;;;5010576;28;20405;-73
2022/10/09 11:34:20;;;;;;;2.30;1.20;;;16.20;99.90;;;;;;5010501;28;20409;-73
2022/10/09 11:36:46;;;;;;;2.60;1.17;;;16.10;99.90;;;;;;5014088;28;20485;-71
2022/10/09 11:39:21;;;;;;;4.67;1.27;;;15.90;99.90;;;;;;5010277;28;20507;-70
2022/10/09 11:41:49;;;;;;;2.83;1.50;;;16.10;99.90;;;;;;5023115;28;20448;-73
2022/10/09 11:44:35;;;;;;;6.50;2.90;;;16.20;99.90;;;;;;5026809;28;20978;-69
2022/10/09 11:47:37;;;;;;;5.77;1.53;;;16.40;99.90;;;;;;5010917;28;20440;-71
2022/10/09 11:50:32;;;;;;;3.50;1.40;;;16.40;99.90;;;;;;5024618;28;20463;-72
2022/10/09 11:53:14;;;;;;;2.83;1.20;;;16.60;99.90;;;;;;4999927;28;20423;-70
2022/10/09 11:55:41;;;;;;;71.77;36.83;;;16.40;99.90;;;;;;5021315;28;20479;-71
2022/10/09 11:58:22;;;;;;;23.67;14.87;;;16.30;99.90;;;;;;5024848;28;20421;-71
2022/10/09 12:00:53;;;;;;;9.50;5.63;;;16.50;99.90;;;;;;5011962;28;20780;-71
2022/10/09 12:03:34;;;;;;;7.63;2.00;;;16.10;99.90;;;;;;5012965;28;20548;-70
2022/10/09 12:06:16;;;;;;;6.23;2.80;;;16.00;99.90;;;;;;5023812;28;20403;-71
2022/10/09 12:09:00;;;;;;;3.37;1.23;;;16.30;99.90;;;;;;5015247;28;20775;-71
2022/10/09 12:11:27;;;;;;;3.53;1.20;;;16.20;99.90;;;;;;5023280;28;20817;-70
2022/10/09 12:13:57;;;;;;;3.20;1.20;;;16.50;99.90;;;;;;5011472;28;20425;-70
2022/10/09 12:16:43;;;;;;;5.23;1.30;;;16.60;99.90;;;;;;5024198;28;20494;-70
2022/10/09 12:19:22;;;;;;;4.53;1.40;;;16.30;99.90;;;;;;5003991;28;20493;-69
2022/10/09 12:22:02;;;;;;;3.40;1.20;;;16.20;99.90;;;;;;5020967;28;20941;-70
2022/10/09 12:24:35;;;;;;;1.33;1.00;;;16.10;99.90;;;;;;5027528;28;20431;-71
2022/10/09 12:27:02;;;;;;;2.13;1.37;;;15.90;99.90;;;;;;5016620;28;20416;-70
2022/10/09 12:29:33;;;;;;;2.60;1.00;;;16.00;99.90;;;;;;5023769;28;20525;-70
2022/10/09 12:32:04;;;;;;;4.70;1.13;;;16.20;99.90;;;;;;5026656;28;20459;-71
2022/10/09 12:34:37;;;;;;;5.37;1.50;;;16.20;99.90;;;;;;5018571;28;20406;-70
2022/10/09 12:37:10;;;;;;;2.37;1.40;;;16.60;99.90;;;;;;5030359;28;20498;-72
2022/10/09 12:39:36;;;;;;;1.47;1.00;;;16.70;99.90;;;;;;5021446;28;20883;-71
2022/10/09 12:42:03;;;;;;;1.90;1.23;;;16.50;99.90;;;;;;5028784;28;20424;-71
2022/10/09 12:44:33;;;;;;;1.63;1.37;;;16.40;99.90;;;;;;5018318;28;20403;-72
2022/10/09 12:47:02;;;;;;;3.00;1.30;;;16.50;99.90;;;;;;5030521;28;20408;-71
2022/10/09 12:49:28;;;;;;;4.70;1.73;;;16.60;99.90;;;;;;5014832;28;20437;-69
2022/10/09 12:51:56;;;;;;;5.10;1.30;;;16.70;99.90;;;;;;5015322;28;20501;-71
2022/10/09 12:54:23;;;;;;;5.83;1.63;;;16.50;99.90;;;;;;5030238;28;20182;-72
2022/10/09 12:56:51;;;;;;;2.77;1.20;;;16.20;99.90;;;;;;5018330;28;20405;-71
2022/10/09 12:59:17;;;;;;;8.73;1.67;;;16.30;99.90;;;;;;5028056;28;20432;-73
2022/10/09 13:01:44;;;;;;;4.67;1.97;;;16.20;99.90;;;;;;5026339;28;20544;-71
2022/10/09 13:04:31;;;;;;;9.73;5.77;;;16.00;99.90;;;;;;5019859;28;20456;-71
2022/10/09 13:07:15;;;;;;;3.47;1.40;;;16.00;99.90;;;;;;5003549;28;20414;-73
2022/10/09 13:09:41;;;;;;;3.50;1.50;;;16.00;99.90;;;;;;5024565;28;20432;-72
2022/10/09 13:12:25;;;;;;;5.50;2.43;;;16.10;99.90;;;;;;5027851;28;20417;-71